sensor_id;sensor_type;location;lat;lon;timestamp;pressure;altitude;pressure_sealevel;temperature;humidity
78773;BME280;68111;44.728;11.290;2024-01-15T00:00:57;100602.41;;;10.97;46.97
78773;BME280;68111;44.728;11.290;2024-01-15T00:03:24;100596.22;;;10.97;47.18
78773;BME280;68111;44.728;11.290;2024-01-15T00:05:51;100581.25;;;10.97;47.15
78773;BME280;68111;44.728;11.290;2024-01-15T00:08:18;100557.44;;;10.97;47.19
78773;BME280;68111;44.728;11.290;2024-01-15T00:10:44;100556.56;;;10.94;47.33
78773;BME280;68111;44.728;11.290;2024-01-15T00:13:11;100554.81;;;10.89;47.16
78773;BME280;68111;44.728;11.290;2024-01-15T00:15:38;100549.53;;;10.86;47.13
78773;BME280;68111;44.728;11.290;2024-01-15T00:18:05;100553.06;;;10.87;47.28
78773;BME280;68111;44.728;11.290;2024-01-15T00:20:32;100546.88;;;10.89;47.33
78773;BME280;68111;44.728;11.290;2024-01-15T00:22:59;100543.34;;;10.89;47.11
78773;BME280;68111;44.728;11.290;2024-01-15T00:25:26;100541.59;;;10.91;47.29
78773;BME280;68111;44.728;11.290;2024-01-15T00:27:52;100539.81;;;10.92;47.25
78773;BME280;68111;44.728;11.290;2024-01-15T00:30:19;100537.16;;;10.93;47.24
78773;BME280;68111;44.728;11.290;2024-01-15T00:32:46;100532.75;;;10.94;47.27
78773;BME280;68111;44.728;11.290;2024-01-15T00:35:13;100525.69;;;10.96;47.22
78773;BME280;68111;44.728;11.290;2024-01-15T00:37:40;100524.81;;;10.97;47.01
78773;BME280;68111;44.728;11.290;2024-01-15T00:40:07;100517.75;;;10.97;46.89
78773;BME280;68111;44.728;11.290;2024-01-15T00:42:34;100512.47;;;10.99;47.14
78773;BME280;68111;44.728;11.290;2024-01-15T00:45:01;100513.34;;;10.98;47.12
78773;BME280;68111;44.728;11.290;2024-01-15T00:47:28;100518.66;;;10.98;47.09
78773;BME280;68111;44.728;11.290;2024-01-15T00:49:54;100507.19;;;10.97;46.68
78773;BME280;68111;44.728;11.290;2024-01-15T00:52:21;100499.25;;;10.96;46.92
78773;BME280;68111;44.728;11.290;2024-01-15T00:54:48;100492.22;;;10.95;46.87
78773;BME280;68111;44.728;11.290;2024-01-15T00:57:15;100492.22;;;10.93;46.83
78773;BME280;68111;44.728;11.290;2024-01-15T00:59:42;100490.47;;;10.90;46.82
78773;BME280;68111;44.728;11.290;2024-01-15T01:02:09;100488.69;;;10.91;46.74
78773;BME280;68111;44.728;11.290;2024-01-15T01:04:35;100497.50;;;10.90;46.62
78773;BME280;68111;44.728;11.290;2024-01-15T01:07:02;100492.22;;;10.88;46.69
78773;BME280;68111;44.728;11.290;2024-01-15T01:09:29;100493.09;;;10.89;46.30
78773;BME280;68111;44.728;11.290;2024-01-15T01:11:56;100494.88;;;10.90;46.41
78773;BME280;68111;44.728;11.290;2024-01-15T01:14:23;100500.16;;;10.90;46.25
78773;BME280;68111;44.728;11.290;2024-01-15T01:16:50;100477.25;;;10.89;46.26
78773;BME280;68111;44.728;11.290;2024-01-15T01:19:17;100488.69;;;10.89;46.17
78773;BME280;68111;44.728;11.290;2024-01-15T01:21:44;100484.28;;;10.90;46.31
78773;BME280;68111;44.728;11.290;2024-01-15T01:24:11;100490.47;;;10.89;46.19
78773;BME280;68111;44.728;11.290;2024-01-15T01:26:38;100494.00;;;10.89;46.30
78773;BME280;68111;44.728;11.290;2024-01-15T01:29:04;100497.50;;;10.92;46.03
78773;BME280;68111;44.728;11.290;2024-01-15T01:31:31;100493.09;;;10.90;46.04
78773;BME280;68111;44.728;11.290;2024-01-15T01:33:58;100483.41;;;10.89;45.88
78773;BME280;68111;44.728;11.290;2024-01-15T01:36:25;100485.19;;;10.89;45.79
78773;BME280;68111;44.728;11.290;2024-01-15T01:38:53;100496.63;;;10.88;45.82
78773;BME280;68111;44.728;11.290;2024-01-15T01:41:20;100486.94;;;10.85;46.06
78773;BME280;68111;44.728;11.290;2024-01-15T01:43:46;100487.84;;;10.84;45.72
78773;BME280;68111;44.728;11.290;2024-01-15T01:46:13;100487.81;;;10.86;45.85
78773;BME280;68111;44.728;11.290;2024-01-15T01:48:40;100486.06;;;10.88;45.68
78773;BME280;68111;44.728;11.290;2024-01-15T01:51:07;100487.81;;;10.86;45.75
78773;BME280;68111;44.728;11.290;2024-01-15T01:53:35;100483.44;;;10.83;45.82
78773;BME280;68111;44.728;11.290;2024-01-15T01:56:03;100466.69;;;10.81;45.89
78773;BME280;68111;44.728;11.290;2024-01-15T01:58:32;100465.81;;;10.82;45.74
78773;BME280;68111;44.728;11.290;2024-01-15T02:00:59;100464.03;;;10.83;45.84
78773;BME280;68111;44.728;11.290;2024-01-15T02:03:27;100456.09;;;10.84;45.51
78773;BME280;68111;44.728;11.290;2024-01-15T02:05:55;100460.50;;;10.87;45.69
78773;BME280;68111;44.728;11.290;2024-01-15T02:08:22;100456.97;;;10.89;45.99
78773;BME280;68111;44.728;11.290;2024-01-15T02:10:49;100444.63;;;10.90;45.72
78773;BME280;68111;44.728;11.290;2024-01-15T02:13:17;100444.63;;;10.92;45.69
78773;BME280;68111;44.728;11.290;2024-01-15T02:15:44;100435.78;;;10.93;45.73
78773;BME280;68111;44.728;11.290;2024-01-15T02:18:11;100453.41;;;10.94;45.44
78773;BME280;68111;44.728;11.290;2024-01-15T02:20:38;100449.88;;;10.95;45.57
78773;BME280;68111;44.728;11.290;2024-01-15T02:23:14;100439.31;;;10.98;45.40
78773;BME280;68111;44.728;11.290;2024-01-15T02:25:43;100449.00;;;10.99;45.32
78773;BME280;68111;44.728;11.290;2024-01-15T02:28:13;100441.06;;;11.00;45.44
78773;BME280;68111;44.728;11.290;2024-01-15T02:30:41;100434.00;;;11.01;45.48
78773;BME280;68111;44.728;11.290;2024-01-15T02:33:10;100440.16;;;11.01;45.33
78773;BME280;68111;44.728;11.290;2024-01-15T02:35:37;100440.19;;;10.98;45.29
78773;BME280;68111;44.728;11.290;2024-01-15T02:38:05;100434.00;;;10.96;45.26
78773;BME280;68111;44.728;11.290;2024-01-15T02:40:32;100439.31;;;10.95;45.18
78773;BME280;68111;44.728;11.290;2024-01-15T02:42:59;100437.56;;;10.94;45.37
78773;BME280;68111;44.728;11.290;2024-01-15T02:45:26;100435.78;;;10.93;45.32
78773;BME280;68111;44.728;11.290;2024-01-15T02:47:53;100428.75;;;10.92;45.33
78773;BME280;68111;44.728;11.290;2024-01-15T02:50:20;100415.53;;;10.90;45.23
78773;BME280;68111;44.728;11.290;2024-01-15T02:52:47;100402.31;;;10.92;45.19
78773;BME280;68111;44.728;11.290;2024-01-15T02:55:14;100392.63;;;10.90;45.24
78773;BME280;68111;44.728;11.290;2024-01-15T02:57:41;100393.50;;;10.89;45.29
78773;BME280;68111;44.728;11.290;2024-01-15T03:00:08;100398.78;;;10.89;45.04
78773;BME280;68111;44.728;11.290;2024-01-15T03:02:37;100404.97;;;10.90;45.30
78773;BME280;68111;44.728;11.290;2024-01-15T03:05:09;100402.31;;;10.92;45.32
78773;BME280;68111;44.728;11.290;2024-01-15T03:07:37;100408.47;;;10.94;45.26
78773;BME280;68111;44.728;11.290;2024-01-15T03:10:04;100403.16;;;10.95;45.55
78773;BME280;68111;44.728;11.290;2024-01-15T03:12:32;100389.94;;;10.98;45.21
78773;BME280;68111;44.728;11.290;2024-01-15T03:14:59;100386.41;;;10.98;45.22
78773;BME280;68111;44.728;11.290;2024-01-15T03:17:26;100391.69;;;10.98;45.13
78773;BME280;68111;44.728;11.290;2024-01-15T03:19:52;100383.75;;;10.98;44.95
78773;BME280;68111;44.728;11.290;2024-01-15T03:22:19;100376.72;;;10.97;44.88
78773;BME280;68111;44.728;11.290;2024-01-15T03:24:46;100364.38;;;10.96;45.00
78773;BME280;68111;44.728;11.290;2024-01-15T03:27:13;100356.44;;;10.96;45.09
78773;BME280;68111;44.728;11.290;2024-01-15T03:29:40;100352.91;;;10.97;44.94
78773;BME280;68111;44.728;11.290;2024-01-15T03:32:07;100345.88;;;10.96;45.14
78773;BME280;68111;44.728;11.290;2024-01-15T03:34:34;100336.19;;;10.95;44.67
78773;BME280;68111;44.728;11.290;2024-01-15T03:37:01;100328.25;;;10.95;44.86
78773;BME280;68111;44.728;11.290;2024-01-15T03:39:28;100330.00;;;10.96;44.96
78773;BME280;68111;44.728;11.290;2024-01-15T03:41:55;100330.88;;;10.96;44.91
78773;BME280;68111;44.728;11.290;2024-01-15T03:44:22;100330.88;;;10.95;44.79
78773;BME280;68111;44.728;11.290;2024-01-15T03:46:49;100333.53;;;10.95;44.90
78773;BME280;68111;44.728;11.290;2024-01-15T03:49:15;100333.50;;;10.96;44.84
78773;BME280;68111;44.728;11.290;2024-01-15T03:51:42;100344.09;;;10.98;44.91
78773;BME280;68111;44.728;11.290;2024-01-15T03:54:09;100337.03;;;10.97;44.78
78773;BME280;68111;44.728;11.290;2024-01-15T03:56:36;100330.00;;;10.96;44.94
78773;BME280;68111;44.728;11.290;2024-01-15T03:59:03;100326.44;;;10.98;44.69
78773;BME280;68111;44.728;11.290;2024-01-15T04:01:29;100329.97;;;10.99;44.67
78773;BME280;68111;44.728;11.290;2024-01-15T04:03:56;100315.88;;;11.00;44.69
78773;BME280;68111;44.728;11.290;2024-01-15T04:06:23;100307.94;;;11.00;44.69
78773;BME280;68111;44.728;11.290;2024-01-15T04:08:50;100307.06;;;10.99;44.87
78773;BME280;68111;44.728;11.290;2024-01-15T04:11:17;100305.28;;;11.00;44.76
78773;BME280;68111;44.728;11.290;2024-01-15T04:13:44;100305.28;;;11.00;44.71
78773;BME280;68111;44.728;11.290;2024-01-15T04:16:11;100294.72;;;11.00;45.07
78773;BME280;68111;44.728;11.290;2024-01-15T04:18:37;100290.31;;;10.99;44.70
78773;BME280;68111;44.728;11.290;2024-01-15T04:21:05;100301.75;;;10.99;44.83
78773;BME280;68111;44.728;11.290;2024-01-15T04:23:33;100300.00;;;11.00;44.79
78773;BME280;68111;44.728;11.290;2024-01-15T04:25:59;100300.88;;;11.02;45.00
78773;BME280;68111;44.728;11.290;2024-01-15T04:28:26;100304.38;;;11.04;45.01
78773;BME280;68111;44.728;11.290;2024-01-15T04:30:53;100299.09;;;11.02;44.74
78773;BME280;68111;44.728;11.290;2024-01-15T04:33:20;100296.47;;;11.01;44.63
78773;BME280;68111;44.728;11.290;2024-01-15T04:35:47;100309.69;;;11.01;44.79
78773;BME280;68111;44.728;11.290;2024-01-15T04:38:13;100310.56;;;11.03;44.62
78773;BME280;68111;44.728;11.290;2024-01-15T04:40:40;100296.44;;;11.04;44.77
78773;BME280;68111;44.728;11.290;2024-01-15T04:43:07;100290.25;;;11.06;44.70
78773;BME280;68111;44.728;11.290;2024-01-15T04:45:34;100294.66;;;11.06;44.64
78773;BME280;68111;44.728;11.290;2024-01-15T04:48:01;100278.78;;;11.06;44.58
78773;BME280;68111;44.728;11.290;2024-01-15T04:50:29;100268.22;;;11.06;44.60
78773;BME280;68111;44.728;11.290;2024-01-15T04:52:56;100256.75;;;11.05;44.69
78773;BME280;68111;44.728;11.290;2024-01-15T04:55:23;100255.00;;;11.03;44.69
78773;BME280;68111;44.728;11.290;2024-01-15T04:57:49;100253.25;;;11.03;44.63
78773;BME280;68111;44.728;11.290;2024-01-15T05:00:17;100253.25;;;11.03;44.86
78773;BME280;68111;44.728;11.290;2024-01-15T05:02:43;100253.25;;;11.03;44.65
78773;BME280;68111;44.728;11.290;2024-01-15T05:05:10;100239.16;;;11.01;44.49
78773;BME280;68111;44.728;11.290;2024-01-15T05:07:37;100246.22;;;11.01;44.64
78773;BME280;68111;44.728;11.290;2024-01-15T05:10:04;100248.88;;;10.99;44.83
78773;BME280;68111;44.728;11.290;2024-01-15T05:12:31;100250.63;;;10.99;44.95
78773;BME280;68111;44.728;11.290;2024-01-15T05:14:58;100254.16;;;10.98;44.86
78773;BME280;68111;44.728;11.290;2024-01-15T05:17:25;100255.94;;;10.97;44.84
78773;BME280;68111;44.728;11.290;2024-01-15T05:19:52;100260.34;;;10.95;44.84
78773;BME280;68111;44.728;11.290;2024-01-15T05:22:19;100262.16;;;10.92;44.94
78773;BME280;68111;44.728;11.290;2024-01-15T05:24:45;100262.16;;;10.88;44.90
78773;BME280;68111;44.728;11.290;2024-01-15T05:27:12;100253.38;;;10.85;45.15
78773;BME280;68111;44.728;11.290;2024-01-15T05:29:39;100257.81;;;10.83;45.15
78773;BME280;68111;44.728;11.290;2024-01-15T05:32:06;100262.22;;;10.82;45.19
78773;BME280;68111;44.728;11.290;2024-01-15T05:34:32;100264.81;;;10.87;45.20
78773;BME280;68111;44.728;11.290;2024-01-15T05:37:00;100256.00;;;10.89;45.37
78773;BME280;68111;44.728;11.290;2024-01-15T05:39:27;100244.50;;;10.92;45.31
78773;BME280;68111;44.728;11.290;2024-01-15T05:41:53;100240.09;;;10.94;45.22
78773;BME280;68111;44.728;11.290;2024-01-15T05:44:20;100226.84;;;10.97;45.40
78773;BME280;68111;44.728;11.290;2024-01-15T05:46:47;100240.03;;;11.02;45.18
78773;BME280;68111;44.728;11.290;2024-01-15T05:49:14;100241.78;;;11.03;45.27
78773;BME280;68111;44.728;11.290;2024-01-15T05:51:41;100237.34;;;11.05;45.15
78773;BME280;68111;44.728;11.290;2024-01-15T05:54:08;100238.25;;;11.04;45.11
78773;BME280;68111;44.728;11.290;2024-01-15T05:56:35;100232.97;;;11.04;45.28
78773;BME280;68111;44.728;11.290;2024-01-15T05:59:02;100224.16;;;11.03;45.19
78773;BME280;68111;44.728;11.290;2024-01-15T06:01:29;100219.75;;;11.02;45.40
78773;BME280;68111;44.728;11.290;2024-01-15T06:03:56;100224.16;;;11.02;45.28
78773;BME280;68111;44.728;11.290;2024-01-15T06:06:23;100237.38;;;11.02;45.47
78773;BME280;68111;44.728;11.290;2024-01-15T06:08:50;100254.16;;;10.99;45.39
78773;BME280;68111;44.728;11.290;2024-01-15T06:11:16;100255.91;;;10.99;45.52
78773;BME280;68111;44.728;11.290;2024-01-15T06:13:43;100255.03;;;10.98;45.58
78773;BME280;68111;44.728;11.290;2024-01-15T06:16:16;100259.47;;;10.98;45.48
78773;BME280;68111;44.728;11.290;2024-01-15T06:18:43;100259.44;;;10.99;45.45
78773;BME280;68111;44.728;11.290;2024-01-15T06:21:10;100266.47;;;11.02;45.60
78773;BME280;68111;44.728;11.290;2024-01-15T06:23:40;100262.06;;;11.04;45.62
78773;BME280;68111;44.728;11.290;2024-01-15T06:26:06;100252.34;;;11.06;45.38
78773;BME280;68111;44.728;11.290;2024-01-15T06:28:33;100252.31;;;11.09;45.51
78773;BME280;68111;44.728;11.290;2024-01-15T06:31:00;100244.38;;;11.10;45.35
78773;BME280;68111;44.728;11.290;2024-01-15T06:33:27;100232.91;;;11.10;45.51
78773;BME280;68111;44.728;11.290;2024-01-15T06:35:54;100230.25;;;11.10;45.63
78773;BME280;68111;44.728;11.290;2024-01-15T06:38:21;100225.88;;;11.09;45.63
78773;BME280;68111;44.728;11.290;2024-01-15T06:40:47;100228.50;;;11.09;45.57
78773;BME280;68111;44.728;11.290;2024-01-15T06:43:19;100221.47;;;11.08;45.62
78773;BME280;68111;44.728;11.290;2024-01-15T06:45:46;100210.91;;;11.06;45.70
78773;BME280;68111;44.728;11.290;2024-01-15T06:48:13;100210.88;;;11.08;45.66
78773;BME280;68111;44.728;11.290;2024-01-15T06:50:43;100208.22;;;11.11;45.65
78773;BME280;68111;44.728;11.290;2024-01-15T06:53:10;100213.50;;;11.11;45.64
78773;BME280;68111;44.728;11.290;2024-01-15T06:55:40;100216.13;;;11.12;45.69
78773;BME280;68111;44.728;11.290;2024-01-15T06:58:06;100217.00;;;11.13;45.69
78773;BME280;68111;44.728;11.290;2024-01-15T07:00:33;100222.31;;;11.13;45.43
78773;BME280;68111;44.728;11.290;2024-01-15T07:03:00;100209.97;;;11.12;45.63
78773;BME280;68111;44.728;11.290;2024-01-15T07:12:01;100214.38;;;11.13;45.41
78773;BME280;68111;44.728;11.290;2024-01-15T07:14:28;100232.13;;;10.99;45.52
78773;BME280;68111;44.728;11.290;2024-01-15T07:16:55;100240.16;;;10.83;45.70
78773;BME280;68111;44.728;11.290;2024-01-15T07:19:22;100239.38;;;10.69;46.04
78773;BME280;68111;44.728;11.290;2024-01-15T07:21:49;100241.22;;;10.56;46.22
78773;BME280;68111;44.728;11.290;2024-01-15T07:24:19;100252.75;;;10.46;46.34
78773;BME280;68111;44.728;11.290;2024-01-15T07:26:46;100251.00;;;10.36;46.64
78773;BME280;68111;44.728;11.290;2024-01-15T07:29:15;100248.41;;;10.27;46.83
78773;BME280;68111;44.728;11.290;2024-01-15T07:31:48;100236.09;;;10.17;46.93
78773;BME280;68111;44.728;11.290;2024-01-15T07:34:15;100240.53;;;10.10;47.18
78773;BME280;68111;44.728;11.290;2024-01-15T07:36:44;100233.50;;;10.08;47.23
78773;BME280;68111;44.728;11.290;2024-01-15T07:39:11;100231.75;;;10.02;47.39
78773;BME280;68111;44.728;11.290;2024-01-15T07:41:38;100238.81;;;10.00;47.72
78773;BME280;68111;44.728;11.290;2024-01-15T07:44:06;100240.56;;;9.98;47.51
78773;BME280;68111;44.728;11.290;2024-01-15T07:46:32;100247.59;;;9.99;47.69
78773;BME280;68111;44.728;11.290;2024-01-15T07:48:59;100245.84;;;10.00;47.94
78773;BME280;68111;44.728;11.290;2024-01-15T07:51:26;100251.13;;;10.01;47.75
78773;BME280;68111;44.728;11.290;2024-01-15T07:53:53;100259.91;;;10.02;47.74
78773;BME280;68111;44.728;11.290;2024-01-15T07:56:21;100254.63;;;10.03;47.62
78773;BME280;68111;44.728;11.290;2024-01-15T07:58:48;100252.00;;;10.05;47.66
78773;BME280;68111;44.728;11.290;2024-01-15T08:01:16;100246.72;;;10.05;47.65
78773;BME280;68111;44.728;11.290;2024-01-15T08:03:44;100256.38;;;10.07;47.47
78773;BME280;68111;44.728;11.290;2024-01-15T08:06:11;100254.63;;;10.09;47.77
78773;BME280;68111;44.728;11.290;2024-01-15T08:08:38;100262.53;;;10.08;47.96
78773;BME280;68111;44.728;11.290;2024-01-15T08:11:05;100261.66;;;10.07;48.06
78773;BME280;68111;44.728;11.290;2024-01-15T08:13:32;100263.41;;;10.11;47.97
78773;BME280;68111;44.728;11.290;2024-01-15T08:15:59;100266.91;;;10.16;47.92
78773;BME280;68111;44.728;11.290;2024-01-15T08:18:26;100252.81;;;10.19;47.98
78773;BME280;68111;44.728;11.290;2024-01-15T08:20:53;100251.06;;;10.24;47.88
78773;BME280;68111;44.728;11.290;2024-01-15T08:23:20;100258.09;;;10.26;47.65
78773;BME280;68111;44.728;11.290;2024-01-15T08:25:48;100270.41;;;10.27;47.63
78773;BME280;68111;44.728;11.290;2024-01-15T08:28:15;100263.38;;;10.28;47.56
78773;BME280;68111;44.728;11.290;2024-01-15T08:30:42;100258.94;;;10.32;47.90
78773;BME280;68111;44.728;11.290;2024-01-15T08:33:09;100249.25;;;10.34;47.76
78773;BME280;68111;44.728;11.290;2024-01-15T08:35:47;100242.19;;;10.36;47.67
78773;BME280;68111;44.728;11.290;2024-01-15T08:38:14;100241.31;;;10.38;47.87
78773;BME280;68111;44.728;11.290;2024-01-15T08:40:41;100242.19;;;10.42;47.72
78773;BME280;68111;44.728;11.290;2024-01-15T08:43:09;100250.09;;;10.46;47.78
78773;BME280;68111;44.728;11.290;2024-01-15T08:45:36;100258.00;;;10.51;47.67
78773;BME280;68111;44.728;11.290;2024-01-15T08:48:03;100257.97;;;10.57;47.56
78773;BME280;68111;44.728;11.290;2024-01-15T08:50:31;100256.19;;;10.59;47.48
78773;BME280;68111;44.728;11.290;2024-01-15T08:52:59;100252.66;;;10.58;47.64
78773;BME280;68111;44.728;11.290;2024-01-15T08:55:25;100263.22;;;10.63;47.51
78773;BME280;68111;44.728;11.290;2024-01-15T08:57:52;100265.84;;;10.66;47.54
78773;BME280;68111;44.728;11.290;2024-01-15T09:00:19;100262.31;;;10.69;47.59
78773;BME280;68111;44.728;11.290;2024-01-15T09:02:46;100257.88;;;10.72;47.51
78773;BME280;68111;44.728;11.290;2024-01-15T09:05:13;100261.38;;;10.77;47.56
78773;BME280;68111;44.728;11.290;2024-01-15T09:07:40;100255.16;;;10.83;47.57
78773;BME280;68111;44.728;11.290;2024-01-15T09:10:09;100240.13;;;10.88;47.57
78773;BME280;68111;44.728;11.290;2024-01-15T09:12:36;100253.31;;;10.94;47.45
78773;BME280;68111;44.728;11.290;2024-01-15T09:15:03;100244.47;;;10.97;47.30
78773;BME280;68111;44.728;11.290;2024-01-15T09:17:32;100242.69;;;11.00;47.54
78773;BME280;68111;44.728;11.290;2024-01-15T09:20:01;100247.06;;;11.06;47.18
78773;BME280;68111;44.728;11.290;2024-01-15T09:22:31;100258.47;;;11.09;47.38
78773;BME280;68111;44.728;11.290;2024-01-15T09:24:58;100259.34;;;11.13;47.20
78773;BME280;68111;44.728;11.290;2024-01-15T09:27:25;100250.50;;;11.14;47.14
78773;BME280;68111;44.728;11.290;2024-01-15T09:29:55;100249.59;;;11.16;47.27
78773;BME280;68111;44.728;11.290;2024-01-15T09:32:22;100248.72;;;11.17;47.23
78773;BME280;68111;44.728;11.290;2024-01-15T09:34:49;100252.25;;;11.18;47.35
78773;BME280;68111;44.728;11.290;2024-01-15T09:37:16;100245.19;;;11.17;47.22
78773;BME280;68111;44.728;11.290;2024-01-15T09:40:05;100249.53;;;11.24;47.29
78773;BME280;68111;44.728;11.290;2024-01-15T09:42:34;100249.47;;;11.32;47.10
78773;BME280;68111;44.728;11.290;2024-01-15T09:45:02;100252.97;;;11.37;47.18
78773;BME280;68111;44.728;11.290;2024-01-15T09:47:31;100250.31;;;11.37;47.12
78773;BME280;68111;44.728;11.290;2024-01-15T09:49:58;100235.31;;;11.37;46.96
78773;BME280;68111;44.728;11.290;2024-01-15T09:52:26;100230.88;;;11.39;47.15
78773;BME280;68111;44.728;11.290;2024-01-15T09:54:53;100241.44;;;11.44;46.76
78773;BME280;68111;44.728;11.290;2024-01-15T09:57:20;100250.22;;;11.47;46.99
78773;BME280;68111;44.728;11.290;2024-01-15T09:59:48;100246.69;;;11.47;46.79
78773;BME280;68111;44.728;11.290;2024-01-15T10:02:15;100237.84;;;11.49;46.93
78773;BME280;68111;44.728;11.290;2024-01-15T10:04:45;100246.63;;;11.51;46.81
78773;BME280;68111;44.728;11.290;2024-01-15T10:07:16;100238.66;;;11.54;46.85
78773;BME280;68111;44.728;11.290;2024-01-15T10:09:46;100232.41;;;11.62;46.87
78773;BME280;68111;44.728;11.290;2024-01-15T10:12:14;100227.94;;;11.67;46.68
78773;BME280;68111;44.728;11.290;2024-01-15T10:14:41;100226.13;;;11.78;46.58
78773;BME280;68111;44.728;11.290;2024-01-15T10:17:13;100217.97;;;11.96;46.49
78773;BME280;68111;44.728;11.290;2024-01-15T10:19:41;100208.06;;;12.12;45.99
78773;BME280;68111;44.728;11.290;2024-01-15T10:22:14;100214.13;;;12.22;45.91
78773;BME280;68111;44.728;11.290;2024-01-15T10:24:42;100208.72;;;12.28;45.66
78773;BME280;68111;44.728;11.290;2024-01-15T10:27:09;100220.19;;;12.30;45.83
78773;BME280;68111;44.728;11.290;2024-01-15T10:29:37;100203.34;;;12.34;45.54
78773;BME280;68111;44.728;11.290;2024-01-15T10:32:07;100201.59;;;12.33;45.19
78773;BME280;68111;44.728;11.290;2024-01-15T10:34:39;100186.59;;;12.32;45.31
78773;BME280;68111;44.728;11.290;2024-01-15T10:37:08;100175.94;;;12.35;45.17
78773;BME280;68111;44.728;11.290;2024-01-15T10:39:35;100171.38;;;12.44;45.08
78773;BME280;68111;44.728;11.290;2024-01-15T10:42:03;100179.19;;;12.55;45.07
78773;BME280;68111;44.728;11.290;2024-01-15T10:44:31;100170.13;;;12.68;44.83
78773;BME280;68111;44.728;11.290;2024-01-15T10:47:02;100173.28;;;12.92;44.79
78773;BME280;68111;44.728;11.290;2024-01-15T10:49:29;100171.25;;;13.09;44.44
78773;BME280;68111;44.728;11.290;2024-01-15T10:52:01;100172.63;;;13.33;44.20
78773;BME280;68111;44.728;11.290;2024-01-15T10:54:29;100160.13;;;13.39;43.88
78773;BME280;68111;44.728;11.290;2024-01-15T10:56:57;100168.31;;;13.27;44.10
78773;BME280;68111;44.728;11.290;2024-01-15T10:59:24;100161.38;;;13.20;43.81
78773;BME280;68111;44.728;11.290;2024-01-15T11:01:52;100161.41;;;13.17;44.02
78773;BME280;68111;44.728;11.290;2024-01-15T11:04:23;100157.94;;;13.12;44.04
78773;BME280;68111;44.728;11.290;2024-01-15T11:06:55;100150.81;;;13.17;43.96
78773;BME280;68111;44.728;11.290;2024-01-15T11:09:24;100155.03;;;13.27;43.83
78773;BME280;68111;44.728;11.290;2024-01-15T11:12:06;100142.38;;;13.41;43.88
78773;BME280;68111;44.728;11.290;2024-01-15T11:14:41;100120.97;;;13.51;43.46
78773;BME280;68111;44.728;11.290;2024-01-15T11:17:11;100117.22;;;13.61;43.46
78773;BME280;68111;44.728;11.290;2024-01-15T11:19:45;100109.13;;;13.67;43.28
78773;BME280;68111;44.728;11.290;2024-01-15T11:25:13;100094.63;;;13.82;43.17
78773;BME280;68111;44.728;11.290;2024-01-15T11:27:45;100085.59;;;13.90;42.78
78773;BME280;68111;44.728;11.290;2024-01-15T11:30:20;100085.31;;;14.02;42.82
78773;BME280;68111;44.728;11.290;2024-01-15T11:32:51;100095.66;;;14.15;42.85
78773;BME280;68111;44.728;11.290;2024-01-15T11:35:18;100084.00;;;14.22;42.55
78773;BME280;68111;44.728;11.290;2024-01-15T11:42:47;100070.25;;;14.43;42.11
78773;BME280;68111;44.728;11.290;2024-01-15T11:45:19;100071.84;;;14.50;42.10
78773;BME280;68111;44.728;11.290;2024-01-15T11:50:43;100072.56;;;14.57;42.03
78773;BME280;68111;44.728;11.290;2024-01-15T11:53:21;100064.47;;;14.61;41.93
78773;BME280;68111;44.728;11.290;2024-01-15T11:55:52;100060.66;;;14.71;42.05
78773;BME280;68111;44.728;11.290;2024-01-15T11:58:23;100058.88;;;14.72;41.63
78773;BME280;68111;44.728;11.290;2024-01-15T12:00:51;100052.00;;;14.63;41.72
78773;BME280;68111;44.728;11.290;2024-01-15T12:03:22;100055.47;;;14.67;41.72
78773;BME280;68111;44.728;11.290;2024-01-15T12:05:52;100053.59;;;14.70;41.78
78773;BME280;68111;44.728;11.290;2024-01-15T12:08:23;100042.94;;;14.70;41.65
78773;BME280;68111;44.728;11.290;2024-01-15T12:10:50;100040.34;;;14.69;41.93
78773;BME280;68111;44.728;11.290;2024-01-15T12:13:18;100040.44;;;14.64;41.76
78773;BME280;68111;44.728;11.290;2024-01-15T12:15:47;100043.16;;;14.63;41.92
78773;BME280;68111;44.728;11.290;2024-01-15T12:18:17;100028.97;;;14.62;41.86
78773;BME280;68111;44.728;11.290;2024-01-15T12:20:45;100029.72;;;14.67;41.79
78773;BME280;68111;44.728;11.290;2024-01-15T12:23:16;100022.59;;;14.69;41.77
78773;BME280;68111;44.728;11.290;2024-01-15T12:25:44;100007.53;;;14.68;41.77
78773;BME280;68111;44.728;11.290;2024-01-15T12:28:11;99991.56;;;14.68;41.44
78773;BME280;68111;44.728;11.290;2024-01-15T12:30:38;99984.53;;;14.66;41.59
78773;BME280;68111;44.728;11.290;2024-01-15T12:33:06;99972.53;;;14.51;41.64
78773;BME280;68111;44.728;11.290;2024-01-15T12:35:36;99963.16;;;14.35;41.90
78773;BME280;68111;44.728;11.290;2024-01-15T12:38:03;99967.13;;;14.17;41.87
78773;BME280;68111;44.728;11.290;2024-01-15T12:40:32;99967.50;;;14.02;42.56
78773;BME280;68111;44.728;11.290;2024-01-15T12:43:05;99960.38;;;14.04;42.59
78773;BME280;68111;44.728;11.290;2024-01-15T12:45:32;99957.53;;;14.12;42.54
78773;BME280;68111;44.728;11.290;2024-01-15T12:47:59;99955.56;;;14.20;42.31
78773;BME280;68111;44.728;11.290;2024-01-15T12:50:27;99957.22;;;14.24;42.33
78773;BME280;68111;44.728;11.290;2024-01-15T12:52:54;99944.75;;;14.26;42.31
78773;BME280;68111;44.728;11.290;2024-01-15T12:55:21;99936.28;;;14.12;42.22
78773;BME280;68111;44.728;11.290;2024-01-15T12:57:47;99940.28;;;13.92;42.75
78773;BME280;68111;44.728;11.290;2024-01-15T13:00:16;99937.13;;;13.76;42.91